Jueves, 29 de Septiembre del 2016

portal contactenos mapa del sitio buscar Revisar Correo Corporativo

Reporte METAR Consolidado

|| Reporte TAF Consolidado ||

Informe METAR emitido cada hora.

METAR

ESTACIÓN

AEROPUERTO

HORA UTC

DESCRIPCIÓN

SLGM

Guayaramerín

10-49S|65-20W

23:00

SLGM 292300Z 34004KT 8000 TS VCSH FEW017 FEW020CB BKN200 29/24 Q1008 A2977 HR76 CB/TS/SH SW FU=

SLRI

Riberalta

11-00S|66-04W

23:00

SLRI 292300Z 36008KT 7000 VCSH SCT017 FEW020CB BKN200 29/24 Q1007 A2975 HR70 CB/SH N/NE/E/SE=

SLCO

Cobija

11-02S|68-47W

23:00

SLCO 292300Z 07006KT 9999 FEW030 FEW033CB BKN080 BKN200 31/25 Q1008 A2977 980.9 HR69 CB/E FU=

SLJO

San Joaquin

13-03S|64-39W

22:00

SLJO 292200Z 00000KT 8000 FEW017 BKN200 33/25 Q1010 A2984 HR64 FU RWY NML=

SLRA

San Ramón

13-15S|64-36W

22:00

SLRA 292200Z 32004KT 9999 FEW017 FEW023CB BKN200 32/25 Q1009 AA2980 HR65 CB SE RWY NML=

SLMG

San Magdalena

13-15S|64-03W

23:00

SLMG 292300Z 00000KT 8000 NSC 30/24 Q1009 A2982 HR69 FU CI RWY NML=

SLBU

Baures

13-39S|63-42W

22:00

SLBU 292200Z 00000KT 9999 FEW023CB BKN200 34/23 Q1006 A2972 HR55 CB NW RWY NML=

SLSA

Santa Ana de Yacuma

13-45S|65-26W

23:00

SLSA 292300Z 00000KT 8000 NSC 27/23 Q1005 A2970 HR76 FU CI=

SLSR

Santa Rosa

14-04S|66-47W

22:00

SLSR 292200Z WO ATTN=

SLRY

Reyes

14-18S|67-21W

22:00

SLRY 292200Z 00000KT 9999 NSC 34/24 Q1006 A2973 CI HR54 RWY OPR 1 100M=

SLRQ

Rurrenabaque

14-25S|67-29W

22:00

SLRQ 292200Z 00000KT 9999 NSC 31/26 Q1005 A2969 HR75 CI=

SLAP

Apolo

14-44S|68-24W

-

Mensaje no Recibido

SLTR

Trinidad

14-49S|64-54W

23:00

SLTR 292300Z 36003KT 9999 FEW020 SCT200 32/24 Q1005 A2970 987.2 HR64 FU NOSIG=

SLSB

San Borja

14-51S|66-44W

23:00

SLSB 292300Z 02002KT 8000 NSC 32/22 Q1005 A2968 FU HR57 RWY NML=

SLSM

San Ignacio de Moxos

14-57S|65-38W

22:00

SLSM 292200Z 00000KT 9999 FEW017 SCT200 34/23 Q1006 A2971 HR51 RWY NML=

SLAS

Ascención de Guarayos

15-55S|63-09W

23:00

SLAS 292300Z 00000KT 3000 FU NSC 30/22 Q1007 A2974 HR61 CI RWY NML=

SLCP

Concepción

16-08S|62-01W

22:00

SLCP 292200Z 00000KT 8000 NSC 31/21 Q1010 A2983 HR53 FU CI RWY NML=

SLLP

Internaciónal El Alto

16-08S|68-10W

23:00

SLLP 292300Z 05007KT 9999 FEW017 FEW020CB BKN200 11/M05 Q1035 A3056 626.1 CB/SH/SW AC HR32 NOSIG=

SLJV

San Javier

16-16S|62-28W

22:00

SLJV 292200Z 00000KT 8000 NSC 31/23 Q1007 A2974 HR62 FU RWY NML =

SLTI

San Matías

16-20S|58-24W

22:00

SLTI 292200Z 00000KT 9999 NSC 32/25 Q1008 A2977 HR65 RWY NML=

SLSI

San Ignacio de Velasco

16-23S|60-57W

23:00

SLSI 292300Z 00000KT 8000 NSC 29/24 Q1008 A2977 HR73 FU RWY NML =

SLCB

Cochabamba

17-25S|66-10W

23:00

SLCB 292300Z 09007KT 9999 FEW033 23/03 Q1020 A3014 747.9 HR28 FU AC CI NOSIG=

SLCN

Charaña

17-35S|69-25W

-

Mensaje no Recibido

SLVR

Internaciónal Viru Viru

17-38S|63-08W

23:00

SLVR 292300Z 35004KT 7000 NSC 29/17 Q1007 A2974 HR49 FU CI NOSIG=

SLET

El Trompillo

17-48S|63-10W

23:00

SLET 292300Z 32008KT 8000 NSC 31/20 Q1006 A2973 HR50 FU CI NOSIG=

SLJE

San José de Chiquitos

17-49S|60-44W

22:00

SLJE 292200Z 00000KT 6000 NSC 33/23 Q1010 A2983 HR52 FU RWY NML =

SLOR

Oruro

17-57S|67-04W

20:00

SLOR 292000Z 02014KT 9999 SCT020 19/M01 Q1032 A3048 654.0 HR24 AC/CI=

SLRB

Roboré

18-19S|59-45W

23:00

SLRB 292300Z 00000KT 9999 NSC 31/24 Q1010 A2982 HR67 RWY NML=

SLVG

Valle Grande

18-28S|64-05W

21:00

SLVG 292100Z 02007KT 9999 SCT030 24/12 Q1021 A3015 HR43 FU RWY NML=

SLPS

Puerto Suárez

18-58S|57-49W

23:00

SLPS 292300Z 00000KT 8000 NSC 32/22 Q1008 A2977 HR56 FU=

SLAL

Sucre (Alcantari)

19-14S|65-09W

23:00

SLAL 292300Z 04013KT 9999 FEW020 16/03 Q1027 A3033 HR41=

SLPO

Potosí

19-32S|65-43W

21:00

SLPO 292100Z 06012KT 9999 SCT020 BKN200 13/04 Q1035 A3056 HR54=

SLAG

Monteagudo

19-49S|63-58W

21:00

SLAG 292100Z WO ATTN=

SLCA

Camiri

20-00S|63-31W

23:00

SLCA 292300Z 36006KT 9999 FEW036 BKN070 32/13 Q1010 A2983 HR32 RWY NML=

SLUY

Uyuni

20-27S|62-52W

23:00

SLUY 292300Z 33010KT 9999 FEW015 14/M10 Q1031 A3047 656.8 HR19=

SLVM

Villamontes

21-15S|63-24W

20:00

SLVM 292000Z 00000KT 9999 FEW023 40/16 Q1003 A2964 HR26 FU=

SLTJ

Tarija

21-33S|64-42W

23:00

SLTJ 292300Z 15008KT 9999 SCT030 FEW036CB BKN070 20/13 Q1018 A3008 HR65 CB/NE/E CI FU=

SLYA

Yacuiba

21-57S|63-39W

23:00

SLYA 292300Z 21006KT 8000 FEW025 31/18 Q1008 A2977 HR46 CB N FU CI=

SLBJ

Bermejo

22-46S|64-18W

21:00

SLBJ 292100Z 18015KT 9999 NSC 34/19 Q1002 A2959 HR42 FU CI=